Time;durP1;ratioP1;P1;durP2;ratioP2;P2;SDS_P1;SDS_P2;PMS_P1;PMS_P2;Temp;Humidity;BMP_temperature;BMP_pressure;BME280_temperature;BME280_humidity;BME280_pressure;Samples;Min_cycle;Max_cycle;Signal;HPM_P1;HPM_P2
2023/11/21 00:02:22;;;;;;;8.20;8.00;;;22.70;66.70;;;;;;5034906;28;20496;-64
2023/11/21 00:04:49;;;;;;;8.50;8.10;;;22.70;66.80;;;;;;5034977;28;20483;-64
2023/11/21 00:07:16;;;;;;;8.40;8.00;;;22.70;66.80;;;;;;5034968;28;20520;-64
2023/11/21 00:09:43;;;;;;;8.40;8.10;;;22.70;66.90;;;;;;5034902;28;20889;-64
2023/11/21 00:12:10;;;;;;;8.87;8.67;;;22.70;66.90;;;;;;5026685;28;20515;-64
2023/11/21 00:14:39;;;;;;;7.70;7.50;;;22.70;66.90;;;;;;5034653;28;20452;-64
2023/11/21 00:17:06;;;;;;;7.70;7.50;;;22.70;67.00;;;;;;5034544;28;20475;-64
2023/11/21 00:19:33;;;;;;;8.40;8.00;;;22.70;67.10;;;;;;5034774;28;20465;-64
2023/11/21 00:22:00;;;;;;;8.40;8.10;;;22.70;67.10;;;;;;5034356;28;20484;-64
2023/11/21 00:24:27;;;;;;;8.10;7.90;;;22.70;67.10;;;;;;5034668;28;20481;-64
2023/11/21 00:26:53;;;;;;;8.53;8.30;;;22.70;67.20;;;;;;5034500;28;20479;-64
2023/11/21 00:29:20;;;;;;;8.23;7.93;;;22.60;67.10;;;;;;5034425;28;20841;-64
2023/11/21 00:31:48;;;;;;;8.00;7.80;;;22.60;67.20;;;;;;5034423;28;20499;-64
2023/11/21 00:34:15;;;;;;;8.60;8.30;;;22.60;67.20;;;;;;5034439;28;20984;-64
2023/11/21 00:36:42;;;;;;;7.90;7.50;;;22.60;67.30;;;;;;5034347;28;20484;-64
2023/11/21 00:39:09;;;;;;;8.50;8.13;;;22.60;67.30;;;;;;5034212;28;20476;-64
2023/11/21 00:41:37;;;;;;;7.87;7.63;;;22.60;67.50;;;;;;5034152;28;20576;-64
2023/11/21 00:44:04;;;;;;;8.17;7.87;;;22.60;67.50;;;;;;5034170;28;20555;-64
2023/11/21 00:46:30;;;;;;;8.80;8.53;;;22.60;67.60;;;;;;5034106;28;20445;-64
2023/11/21 00:48:58;;;;;;;8.93;8.53;;;22.60;67.70;;;;;;5034036;28;20441;-64
2023/11/21 00:51:25;;;;;;;8.80;8.57;;;22.60;67.70;;;;;;5033639;28;20301;-64
2023/11/21 00:53:52;;;;;;;7.87;7.47;;;22.50;67.70;;;;;;5033904;28;20477;-65
2023/11/21 00:56:20;;;;;;;7.57;7.30;;;22.50;67.70;;;;;;5033955;28;20964;-64
2023/11/21 00:58:49;;;;;;;8.40;7.97;;;22.60;67.90;;;;;;5033766;28;20473;-64
2023/11/21 01:01:16;;;;;;;7.43;7.23;;;22.50;67.80;;;;;;5033870;28;20523;-64
2023/11/21 01:03:44;;;;;;;7.23;7.03;;;22.50;67.70;;;;;;5033850;28;20505;-64
2023/11/21 01:06:12;;;;;;;7.97;7.67;;;22.50;67.70;;;;;;5033698;28;20811;-64
2023/11/21 01:08:39;;;;;;;8.47;8.20;;;22.50;67.80;;;;;;5033753;28;20472;-63
2023/11/21 01:11:08;;;;;;;8.00;7.80;;;22.50;67.80;;;;;;5033593;28;20481;-64
2023/11/21 01:13:35;;;;;;;8.63;8.43;;;22.50;67.90;;;;;;5033697;28;20960;-64
2023/11/21 01:16:03;;;;;;;8.40;8.20;;;22.50;68.00;;;;;;5033482;28;20449;-64
2023/11/21 01:18:30;;;;;;;8.50;8.30;;;22.50;67.90;;;;;;5033652;28;20441;-64
2023/11/21 01:20:57;;;;;;;8.37;8.07;;;22.50;67.90;;;;;;5033313;28;20831;-63
2023/11/21 01:23:25;;;;;;;7.80;7.60;;;22.50;68.10;;;;;;5040991;28;20515;-64
2023/11/21 01:25:52;;;;;;;9.33;9.03;;;22.50;68.10;;;;;;5033304;28;20819;-64
2023/11/21 01:28:19;;;;;;;7.77;7.57;;;22.40;68.20;;;;;;5033347;28;20872;-64
2023/11/21 01:30:46;;;;;;;7.90;7.70;;;22.50;68.20;;;;;;5033296;28;20532;-64
2023/11/21 01:33:15;;;;;;;7.93;7.73;;;22.50;68.20;;;;;;5025098;28;20481;-64
2023/11/21 01:35:42;;;;;;;8.70;8.27;;;22.50;68.20;;;;;;5033194;28;20475;-64
2023/11/21 01:38:09;;;;;;;8.00;7.80;;;22.50;68.20;;;;;;5033085;28;20462;-64
2023/11/21 01:40:37;;;;;;;9.00;8.70;;;22.40;68.10;;;;;;5033152;28;20499;-64
2023/11/21 01:43:04;;;;;;;10.13;9.53;;;22.40;68.30;;;;;;5032753;28;20569;-64
2023/11/21 01:45:33;;;;;;;9.40;9.10;;;22.40;68.30;;;;;;5033128;28;20472;-64
2023/11/21 01:48:01;;;;;;;9.50;9.20;;;22.40;68.40;;;;;;5032946;28;20447;-64
2023/11/21 01:50:29;;;;;;;8.73;8.43;;;22.40;68.40;;;;;;5033013;28;20500;-64
2023/11/21 01:52:56;;;;;;;9.63;9.13;;;22.40;68.30;;;;;;5032759;28;20512;-64
2023/11/21 01:55:23;;;;;;;8.50;8.20;;;22.40;68.30;;;;;;5032927;28;20473;-64
2023/11/21 01:57:51;;;;;;;8.00;7.80;;;22.40;68.40;;;;;;5032671;28;20476;-64
2023/11/21 02:00:19;;;;;;;8.63;8.40;;;22.40;68.40;;;;;;5032811;28;20963;-64
2023/11/21 02:02:46;;;;;;;8.43;8.13;;;22.40;68.40;;;;;;5032198;28;20542;-64
2023/11/21 02:05:14;;;;;;;8.90;8.60;;;22.50;68.40;;;;;;5031982;28;20480;-64
2023/11/21 02:07:41;;;;;;;9.63;9.30;;;22.40;68.30;;;;;;5032786;28;20877;-64
2023/11/21 02:10:08;;;;;;;8.77;8.47;;;22.40;68.40;;;;;;5032514;28;20449;-64
2023/11/21 02:12:36;;;;;;;9.53;9.20;;;22.40;68.50;;;;;;5032416;28;20538;-64
2023/11/21 02:15:09;;;;;;;9.70;9.40;;;22.40;68.50;;;;;;5032384;28;20472;-64
2023/11/21 02:17:36;;;;;;;9.37;9.17;;;22.40;68.50;;;;;;5032400;28;20507;-64
2023/11/21 02:20:06;;;;;;;8.93;8.60;;;22.40;68.60;;;;;;5032464;28;20484;-64
2023/11/21 02:22:36;;;;;;;9.57;9.20;;;22.40;68.60;;;;;;5032038;28;20512;-64
2023/11/21 02:25:07;;;;;;;9.00;8.80;;;22.40;68.70;;;;;;5032262;28;20517;-64
2023/11/21 02:27:34;;;;;;;8.60;8.30;;;22.40;68.60;;;;;;5032290;28;20488;-64
2023/11/21 02:30:01;;;;;;;9.73;9.43;;;22.40;68.60;;;;;;5032130;28;20499;-64
2023/11/21 02:32:28;;;;;;;8.97;8.67;;;22.40;68.60;;;;;;5032053;28;20461;-64
2023/11/21 02:34:55;;;;;;;9.07;8.77;;;22.40;68.60;;;;;;5031927;28;20449;-64
2023/11/21 02:37:22;;;;;;;9.23;8.93;;;22.40;68.60;;;;;;5032231;28;20445;-64
2023/11/21 02:39:49;;;;;;;10.07;9.77;;;22.40;68.60;;;;;;5032106;28;20964;-64
2023/11/21 02:42:17;;;;;;;9.57;9.27;;;22.40;68.60;;;;;;5031776;28;20509;-64
2023/11/21 02:44:44;;;;;;;9.33;9.10;;;22.40;68.70;;;;;;5032001;28;20441;-64
2023/11/21 02:47:11;;;;;;;8.70;8.50;;;22.30;68.60;;;;;;5031811;28;20469;-64
2023/11/21 02:49:38;;;;;;;8.83;8.57;;;22.30;68.70;;;;;;5031897;28;20489;-64
2023/11/21 02:52:05;;;;;;;8.37;8.13;;;22.30;68.70;;;;;;5031622;28;20492;-64
2023/11/21 02:54:36;;;;;;;8.73;8.43;;;22.30;68.70;;;;;;5031760;28;20476;-64
2023/11/21 02:57:03;;;;;;;8.83;8.50;;;22.30;68.60;;;;;;5031771;28;20445;-64
2023/11/21 02:59:31;;;;;;;9.40;9.03;;;22.30;68.70;;;;;;5031694;28;20448;-64
2023/11/21 03:01:58;;;;;;;9.13;8.80;;;22.30;68.70;;;;;;5031434;28;20503;-64
2023/11/21 03:04:26;;;;;;;9.43;9.23;;;22.30;68.70;;;;;;5031633;28;21063;-64
2023/11/21 03:06:52;;;;;;;10.07;9.67;;;22.30;68.80;;;;;;5031552;28;20875;-64
2023/11/21 03:09:19;;;;;;;10.10;9.73;;;22.30;68.80;;;;;;5031727;28;20492;-64
2023/11/21 03:11:46;;;;;;;9.67;9.30;;;22.30;68.70;;;;;;5031485;28;20500;-64
2023/11/21 03:14:13;;;;;;;10.27;10.00;;;22.30;68.70;;;;;;5031505;28;20494;-64
2023/11/21 03:16:42;;;;;;;9.30;9.10;;;22.30;68.70;;;;;;5031598;28;20880;-64
2023/11/21 03:19:09;;;;;;;8.63;8.43;;;22.30;68.70;;;;;;5031403;28;20451;-64
2023/11/21 03:21:35;;;;;;;9.00;8.70;;;22.30;68.70;;;;;;5031428;28;20483;-64
2023/11/21 03:24:02;;;;;;;8.30;8.00;;;22.30;68.80;;;;;;5031503;28;20554;-64
2023/11/21 03:26:30;;;;;;;8.70;8.40;;;22.30;68.80;;;;;;5031419;28;20723;-64
2023/11/21 03:28:57;;;;;;;8.33;8.13;;;22.30;68.80;;;;;;5031236;28;20453;-64
2023/11/21 03:31:24;;;;;;;9.83;9.53;;;22.30;68.70;;;;;;5031432;28;21172;-64
2023/11/21 03:33:53;;;;;;;8.37;8.17;;;22.30;68.80;;;;;;5031532;28;20963;-64
2023/11/21 03:36:20;;;;;;;8.80;8.50;;;22.30;68.80;;;;;;5031348;28;20441;-64
2023/11/21 03:38:49;;;;;;;8.53;8.33;;;22.30;68.80;;;;;;5031316;28;20472;-64
2023/11/21 03:41:15;;;;;;;9.30;9.10;;;22.30;68.80;;;;;;5031084;28;20485;-64
2023/11/21 03:43:42;;;;;;;8.93;8.63;;;22.30;68.80;;;;;;5031275;28;20565;-64
2023/11/21 03:46:10;;;;;;;8.40;8.20;;;22.30;68.80;;;;;;5031221;28;20477;-64
2023/11/21 03:48:36;;;;;;;9.00;8.70;;;22.20;68.70;;;;;;5031134;28;20452;-64
2023/11/21 03:51:05;;;;;;;8.97;8.67;;;22.20;68.70;;;;;;5031142;28;20876;-64
2023/11/21 03:53:32;;;;;;;8.93;8.63;;;22.30;68.80;;;;;;5031304;28;20472;-64
2023/11/21 03:55:59;;;;;;;9.33;9.03;;;22.20;68.80;;;;;;5031206;28;20480;-64
2023/11/21 03:58:26;;;;;;;8.70;8.50;;;22.20;68.90;;;;;;5031140;28;20473;-64
2023/11/21 04:00:53;;;;;;;9.47;9.07;;;22.20;68.90;;;;;;5031049;28;20451;-64
2023/11/21 04:03:20;;;;;;;8.60;8.40;;;22.20;68.90;;;;;;5023134;28;20515;-64
2023/11/21 04:05:47;;;;;;;8.90;8.60;;;22.20;68.90;;;;;;5031164;28;20441;-64
2023/11/21 04:08:15;;;;;;;9.17;8.97;;;22.20;69.00;;;;;;5030945;28;20473;-64
2023/11/21 04:10:42;;;;;;;10.50;10.00;;;22.20;68.90;;;;;;5031036;28;20947;-64
2023/11/21 04:13:10;;;;;;;8.87;8.57;;;22.20;69.00;;;;;;5030847;28;20457;-64
2023/11/21 04:15:37;;;;;;;9.20;8.90;;;22.20;69.00;;;;;;5030969;28;20445;-64
2023/11/21 04:18:04;;;;;;;9.10;8.90;;;22.20;68.90;;;;;;5030754;28;20532;-64
2023/11/21 04:20:31;;;;;;;9.30;9.00;;;22.20;68.90;;;;;;5030929;28;20876;-64
2023/11/21 04:22:58;;;;;;;9.17;8.87;;;22.20;68.90;;;;;;5030829;28;20535;-64
2023/11/21 04:25:27;;;;;;;10.03;9.73;;;22.20;68.90;;;;;;5030870;28;20469;-64
2023/11/21 04:27:54;;;;;;;8.97;8.70;;;22.20;68.90;;;;;;5033246;28;20441;-64
2023/11/21 04:30:21;;;;;;;8.90;8.70;;;22.20;68.90;;;;;;5034498;28;20520;-64
2023/11/21 04:32:47;;;;;;;10.27;9.97;;;22.20;69.00;;;;;;5034503;28;20504;-64
2023/11/21 04:35:14;;;;;;;9.50;9.20;;;22.20;69.00;;;;;;5035414;28;20465;-64
2023/11/21 04:37:42;;;;;;;10.00;9.70;;;22.20;69.00;;;;;;5034395;28;20449;-64
2023/11/21 04:40:10;;;;;;;9.80;9.50;;;22.20;68.90;;;;;;5034214;28;20948;-64
2023/11/21 04:42:38;;;;;;;8.93;8.70;;;22.20;69.00;;;;;;5034227;28;20492;-64
2023/11/21 04:45:08;;;;;;;9.73;9.47;;;22.20;69.00;;;;;;5034122;28;20883;-64
2023/11/21 04:47:36;;;;;;;9.33;9.03;;;22.20;69.00;;;;;;5034149;28;20452;-64
2023/11/21 04:50:03;;;;;;;9.97;9.67;;;22.20;69.80;;;;;;5034256;28;20537;-64
2023/11/21 04:52:30;;;;;;;9.30;9.00;;;22.10;69.00;;;;;;5033934;28;20463;-64
2023/11/21 04:54:58;;;;;;;9.73;9.43;;;22.20;69.10;;;;;;5033873;28;20475;-64
2023/11/21 04:57:25;;;;;;;9.73;9.53;;;22.20;69.00;;;;;;5034063;28;20445;-64
2023/11/21 04:59:53;;;;;;;9.30;9.00;;;22.20;69.30;;;;;;5034142;28;20532;-64
2023/11/21 05:02:21;;;;;;;9.60;9.30;;;22.20;69.40;;;;;;5033662;28;20484;-64
2023/11/21 05:04:48;;;;;;;9.77;9.47;;;22.20;69.40;;;;;;5033783;28;20487;-64
2023/11/21 05:07:16;;;;;;;10.33;10.03;;;22.20;69.60;;;;;;5033651;28;20866;-64
2023/11/21 05:09:43;;;;;;;10.00;9.70;;;22.20;69.70;;;;;;5033877;28;20948;-64
2023/11/21 05:12:11;;;;;;;10.80;10.40;;;22.20;69.70;;;;;;5033531;28;20539;-64
2023/11/21 05:14:38;;;;;;;10.83;10.43;;;22.20;69.70;;;;;;5033680;28;20444;-64
2023/11/21 05:17:07;;;;;;;12.27;11.53;;;22.20;69.70;;;;;;5033587;28;20479;-64
2023/11/21 05:19:35;;;;;;;11.13;10.77;;;22.20;70.10;;;;;;5033601;28;20529;-64
2023/11/21 05:22:03;;;;;;;10.50;10.20;;;22.20;70.30;;;;;;5033171;28;20473;-64
2023/11/21 05:24:29;;;;;;;10.50;10.20;;;22.20;70.20;;;;;;5033463;28;20843;-64
2023/11/21 05:26:57;;;;;;;10.43;10.03;;;22.20;70.30;;;;;;5033441;28;20845;-64
2023/11/21 05:29:25;;;;;;;10.33;10.03;;;22.10;70.20;;;;;;5025765;28;20441;-64
2023/11/21 05:31:52;;;;;;;9.80;9.60;;;22.20;70.20;;;;;;5033299;28;20513;-64
2023/11/21 05:34:23;;;;;;;9.83;9.57;;;22.20;70.10;;;;;;5033204;28;20441;-64
2023/11/21 05:36:50;;;;;;;10.07;9.77;;;22.20;69.80;;;;;;5033353;28;20449;-64
2023/11/21 05:39:18;;;;;;;11.37;10.97;;;22.20;70.10;;;;;;5033096;28;20441;-64
2023/11/21 05:41:45;;;;;;;11.37;10.67;;;22.20;70.90;;;;;;5033045;28;20468;-64
2023/11/21 05:44:14;;;;;;;13.10;12.20;;;22.20;71.50;;;;;;5032857;28;20569;-64
2023/11/21 05:46:43;;;;;;;18.80;12.30;;;22.30;72.20;;;;;;5033121;28;20531;-64
2023/11/21 05:49:09;;;;;;;14.30;13.00;;;22.20;73.20;;;;;;5032976;28;20503;-64
2023/11/21 05:51:38;;;;;;;12.90;11.60;;;22.20;76.60;;;;;;5052996;22;20518;-67
2023/11/21 05:54:05;;;;;;;15.83;13.10;;;22.20;77.00;;;;;;5013052;28;20448;-67
2023/11/21 05:56:32;;;;;;;13.77;12.77;;;22.20;77.00;;;;;;5013173;28;20464;-67
2023/11/21 05:58:59;;;;;;;12.70;11.53;;;22.30;75.90;;;;;;5012971;28;20536;-67
2023/11/21 06:01:28;;;;;;;16.40;13.40;;;22.30;75.40;;;;;;5012852;28;20454;-67
2023/11/21 06:03:55;;;;;;;13.00;12.00;;;22.30;74.90;;;;;;5012799;28;20482;-67
2023/11/21 06:06:24;;;;;;;20.77;13.23;;;22.30;74.50;;;;;;5012707;28;20440;-68
2023/11/21 06:08:52;;;;;;;12.40;11.50;;;22.30;74.30;;;;;;5012705;28;20492;-67
2023/11/21 06:11:19;;;;;;;13.27;12.23;;;22.30;74.10;;;;;;5012572;28;20462;-67
2023/11/21 06:13:47;;;;;;;15.10;13.67;;;22.30;73.70;;;;;;5012655;28;20480;-67
2023/11/21 06:16:16;;;;;;;13.57;12.73;;;22.30;73.60;;;;;;5012415;28;20817;-67
2023/11/21 06:18:44;;;;;;;11.90;11.07;;;22.30;73.40;;;;;;5012639;28;20804;-67
2023/11/21 06:21:11;;;;;;;15.17;13.67;;;22.30;73.30;;;;;;5012420;28;20442;-67
2023/11/21 06:23:38;;;;;;;11.30;10.50;;;22.30;73.20;;;;;;5012360;28;20509;-67
2023/11/21 06:26:06;;;;;;;11.53;10.73;;;22.30;72.90;;;;;;5012290;28;20473;-67
2023/11/21 06:28:33;;;;;;;11.83;11.00;;;22.30;72.80;;;;;;5012373;28;20442;-67
2023/11/21 06:31:04;;;;;;;12.00;11.20;;;22.30;72.60;;;;;;5012285;28;20524;-67
2023/11/21 06:33:31;;;;;;;13.60;12.60;;;22.40;72.50;;;;;;5012280;28;20462;-67
2023/11/21 06:35:58;;;;;;;12.77;11.97;;;22.30;72.20;;;;;;5012222;28;20489;-67
2023/11/21 06:38:27;;;;;;;11.67;10.90;;;22.30;72.10;;;;;;5004330;28;20442;-67
2023/11/21 06:40:55;;;;;;;11.33;10.60;;;22.30;72.10;;;;;;5012208;28;20886;-67
2023/11/21 06:43:23;;;;;;;13.00;12.03;;;22.30;71.80;;;;;;5011935;28;20558;-68
2023/11/21 06:45:50;;;;;;;12.80;12.07;;;22.30;71.70;;;;;;5012242;28;20532;-67
2023/11/21 06:48:17;;;;;;;14.03;12.93;;;22.30;71.50;;;;;;5012004;28;20442;-67
2023/11/21 06:50:44;;;;;;;12.13;11.53;;;22.30;71.50;;;;;;5011639;28;20477;-67
2023/11/21 06:53:11;;;;;;;12.40;11.47;;;22.30;71.30;;;;;;5011689;28;20497;-67
2023/11/21 06:55:38;;;;;;;12.03;11.20;;;22.40;71.30;;;;;;5011903;28;20521;-68
2023/11/21 06:58:05;;;;;;;12.07;11.07;;;22.40;71.20;;;;;;5011798;28;20477;-67
2023/11/21 07:00:33;;;;;;;11.77;10.80;;;22.40;71.00;;;;;;5011907;28;20505;-67
2023/11/21 07:03:00;;;;;;;12.73;11.63;;;22.40;71.00;;;;;;5011641;28;20477;-68
2023/11/21 07:05:27;;;;;;;13.63;12.73;;;22.40;70.80;;;;;;5011701;28;21028;-67
2023/11/21 07:07:54;;;;;;;13.07;12.03;;;22.40;70.80;;;;;;5011837;28;20480;-67
2023/11/21 07:10:21;;;;;;;11.40;10.80;;;22.40;70.70;;;;;;5011670;28;20934;-67
2023/11/21 07:12:48;;;;;;;10.80;10.40;;;22.40;70.60;;;;;;5011610;28;20494;-67
2023/11/21 07:15:15;;;;;;;12.37;11.50;;;22.40;70.50;;;;;;5011606;28;20453;-68
2023/11/21 07:17:43;;;;;;;11.37;10.57;;;22.40;70.40;;;;;;5011840;28;20500;-68
2023/11/21 07:20:12;;;;;;;11.77;10.93;;;22.40;70.30;;;;;;5011511;28;20442;-67
2023/11/21 07:22:38;;;;;;;12.03;11.23;;;22.40;70.20;;;;;;5011582;28;20501;-67
2023/11/21 07:25:07;;;;;;;11.50;10.93;;;22.40;70.10;;;;;;5011424;28;20555;-68
2023/11/21 07:27:35;;;;;;;11.57;10.97;;;22.40;70.10;;;;;;5011604;28;20477;-68
2023/11/21 07:30:04;;;;;;;12.70;11.87;;;22.40;70.00;;;;;;5011463;28;20450;-68
2023/11/21 07:32:31;;;;;;;12.10;11.60;;;22.40;69.90;;;;;;5011379;28;20472;-67
2023/11/21 07:35:01;;;;;;;11.70;11.10;;;22.40;69.80;;;;;;5011482;28;20474;-67
2023/11/21 07:37:28;;;;;;;12.80;12.23;;;22.40;69.80;;;;;;5003569;28;20879;-67
2023/11/21 07:39:56;;;;;;;13.47;12.57;;;22.40;69.70;;;;;;5011398;28;20446;-68
2023/11/21 07:42:24;;;;;;;13.83;12.93;;;22.40;69.60;;;;;;5011214;28;20464;-68
2023/11/21 07:44:51;;;;;;;13.53;12.70;;;22.40;69.60;;;;;;5011310;28;20569;-68
2023/11/21 07:47:18;;;;;;;11.77;10.90;;;22.40;69.50;;;;;;5011358;28;20446;-67
2023/11/21 07:49:46;;;;;;;11.67;11.07;;;22.40;69.40;;;;;;5011405;28;20477;-67
2023/11/21 07:52:16;;;;;;;9.77;9.23;;;22.40;69.30;;;;;;5010977;28;21012;-67
2023/11/21 07:54:43;;;;;;;10.87;10.40;;;22.40;69.30;;;;;;5011364;28;21047;-67
2023/11/21 07:57:13;;;;;;;11.13;10.53;;;22.40;69.20;;;;;;5011231;28;20448;-67
2023/11/21 07:59:40;;;;;;;10.80;10.30;;;22.40;69.20;;;;;;5011620;28;20446;-67
2023/11/21 08:02:07;;;;;;;11.17;10.53;;;22.40;69.10;;;;;;5012440;28;20822;-68
2023/11/21 08:04:35;;;;;;;12.03;11.53;;;22.40;69.00;;;;;;5015027;28;20557;-68
2023/11/21 08:07:03;;;;;;;11.00;10.50;;;22.40;69.00;;;;;;5015115;28;20454;-67
2023/11/21 08:09:32;;;;;;;10.57;10.13;;;22.40;68.90;;;;;;5007227;28;20473;-67
2023/11/21 08:12:00;;;;;;;10.80;10.30;;;22.40;68.90;;;;;;5014857;28;20472;-67
2023/11/21 08:14:27;;;;;;;10.60;10.00;;;22.40;68.90;;;;;;5014784;28;20441;-67
2023/11/21 08:16:57;;;;;;;10.40;10.00;;;22.40;68.80;;;;;;5014869;28;20470;-67
2023/11/21 08:19:25;;;;;;;10.73;10.23;;;22.40;68.70;;;;;;5014680;28;20976;-67
2023/11/21 08:21:54;;;;;;;10.37;10.07;;;22.40;68.70;;;;;;5014673;28;20881;-67
2023/11/21 08:24:21;;;;;;;11.43;10.53;;;22.40;68.60;;;;;;5014719;28;20481;-67
2023/11/21 08:26:50;;;;;;;11.97;11.30;;;22.40;68.60;;;;;;5014643;28;20477;-67
2023/11/21 08:29:18;;;;;;;10.87;10.50;;;22.40;68.60;;;;;;5014459;28;20872;-68
2023/11/21 08:31:46;;;;;;;10.77;10.37;;;22.40;68.60;;;;;;5014536;28;20473;-67
2023/11/21 08:34:14;;;;;;;11.00;10.50;;;22.40;68.50;;;;;;5014414;28;20744;-67
2023/11/21 08:36:43;;;;;;;10.03;9.53;;;22.40;68.40;;;;;;5014520;28;20445;-68
2023/11/21 08:39:10;;;;;;;10.40;10.00;;;22.40;68.40;;;;;;5014324;28;20963;-67
2023/11/21 08:41:37;;;;;;;9.70;9.40;;;22.40;68.40;;;;;;5014318;28;20465;-67
2023/11/21 08:44:07;;;;;;;9.80;9.50;;;22.40;68.40;;;;;;5014310;28;20828;-68
2023/11/21 08:46:36;;;;;;;10.43;10.03;;;22.40;68.30;;;;;;5014354;28;20457;-68
2023/11/21 08:49:03;;;;;;;10.30;9.90;;;22.40;68.20;;;;;;5014286;28;21011;-67
2023/11/21 08:51:31;;;;;;;10.87;10.40;;;22.40;68.20;;;;;;5005923;28;20524;-67
2023/11/21 08:54:00;;;;;;;11.30;10.80;;;22.40;68.20;;;;;;5014190;28;20454;-68
2023/11/21 08:56:28;;;;;;;11.53;11.03;;;22.40;68.20;;;;;;5014046;28;20457;-68
2023/11/21 08:58:54;;;;;;;11.20;10.50;;;22.40;68.90;;;;;;5014091;28;20957;-68
2023/11/21 09:01:23;;;;;;;10.70;10.30;;;22.40;68.00;;;;;;5013864;28;20480;-68
2023/11/21 09:03:50;;;;;;;9.60;9.30;;;22.40;68.00;;;;;;5013934;28;20504;-67
2023/11/21 09:06:17;;;;;;;11.10;10.70;;;22.40;67.90;;;;;;5013906;28;20484;-68
2023/11/21 09:08:44;;;;;;;11.23;10.77;;;22.40;68.00;;;;;;5013848;28;20484;-68
2023/11/21 09:11:11;;;;;;;11.20;10.80;;;22.40;67.90;;;;;;5013536;28;20477;-68
2023/11/21 09:13:38;;;;;;;11.00;10.50;;;22.40;67.80;;;;;;5013466;28;20478;-67
2023/11/21 09:16:05;;;;;;;10.20;9.60;;;22.40;67.90;;;;;;5013685;28;20473;-67
2023/11/21 09:18:34;;;;;;;10.90;10.50;;;22.40;67.80;;;;;;5005857;28;20450;-68
2023/11/21 09:21:01;;;;;;;11.07;10.60;;;22.40;67.80;;;;;;5013580;28;20449;-67
2023/11/21 09:23:27;;;;;;;11.10;10.80;;;22.40;67.70;;;;;;5013405;28;20489;-67
2023/11/21 09:25:56;;;;;;;10.07;9.80;;;22.40;67.70;;;;;;5013440;28;20509;-68
2023/11/21 09:28:24;;;;;;;11.60;11.00;;;22.40;67.70;;;;;;5013362;28;20953;-67
2023/11/21 09:30:50;;;;;;;10.40;10.00;;;22.40;67.60;;;;;;5013370;28;20450;-67
2023/11/21 09:33:17;;;;;;;12.10;11.47;;;22.40;67.50;;;;;;5013281;28;20497;-68
2023/11/21 09:35:46;;;;;;;11.70;11.30;;;22.40;67.50;;;;;;5013382;28;20502;-68
2023/11/21 09:38:12;;;;;;;10.97;10.47;;;22.40;67.50;;;;;;5013117;28;20453;-67
2023/11/21 09:40:40;;;;;;;12.43;11.93;;;22.40;67.50;;;;;;5013373;28;20470;-68
2023/11/21 09:43:15;;;;;;;11.83;11.23;;;22.40;67.50;;;;;;5013088;28;20545;-68
2023/11/21 09:45:46;;;;;;;11.90;11.37;;;22.40;67.50;;;;;;5013301;28;20512;-67
2023/11/21 09:48:15;;;;;;;11.30;10.80;;;22.40;67.40;;;;;;5013013;28;20465;-67
2023/11/21 09:50:44;;;;;;;11.00;10.60;;;22.40;67.40;;;;;;5013275;28;20446;-67
2023/11/21 09:53:17;;;;;;;11.37;10.90;;;22.40;67.40;;;;;;5012755;28;20538;-67
2023/11/21 09:55:47;;;;;;;11.37;10.97;;;22.40;67.40;;;;;;5012971;28;20521;-67
2023/11/21 09:58:15;;;;;;;11.60;11.20;;;22.40;67.40;;;;;;5012810;28;20474;-68
2023/11/21 10:00:43;;;;;;;11.23;10.93;;;22.40;67.40;;;;;;5013024;28;20477;-68
2023/11/21 10:03:11;;;;;;;11.80;11.40;;;22.40;67.30;;;;;;5012698;28;20500;-67
2023/11/21 10:05:38;;;;;;;11.47;10.97;;;22.40;67.30;;;;;;5012701;28;20478;-68
2023/11/21 10:08:10;;;;;;;12.40;11.93;;;22.40;67.30;;;;;;5012867;28;20528;-68
2023/11/21 10:10:38;;;;;;;10.80;10.37;;;22.40;67.30;;;;;;5005334;28;20442;-67
2023/11/21 10:13:07;;;;;;;11.83;11.33;;;22.40;67.20;;;;;;5012653;28;20473;-68
2023/11/21 10:15:35;;;;;;;11.87;11.43;;;22.40;67.30;;;;;;5004685;28;20529;-68
2023/11/21 10:18:06;;;;;;;11.97;11.30;;;22.40;67.20;;;;;;5012624;28;20450;-68
2023/11/21 10:20:34;;;;;;;11.90;11.50;;;22.40;67.20;;;;;;5004743;28;20446;-68
2023/11/21 10:23:03;;;;;;;12.10;11.70;;;22.40;67.20;;;;;;5012478;28;20461;-68
2023/11/21 10:25:31;;;;;;;12.80;12.20;;;22.40;67.10;;;;;;5011686;28;20855;-67
2023/11/21 10:28:01;;;;;;;12.33;11.73;;;22.40;67.20;;;;;;5012423;28;20470;-68
2023/11/21 10:30:36;;;;;;;11.47;11.10;;;22.40;67.20;;;;;;5012408;28;20553;-67
2023/11/21 10:33:04;;;;;;;12.00;11.50;;;22.40;67.20;;;;;;5012266;28;20457;-68
2023/11/21 10:35:55;;;;;;;12.33;11.83;;;22.40;67.20;;;;;;5012150;28;20465;-67
2023/11/21 10:38:23;;;;;;;12.13;11.60;;;22.40;67.20;;;;;;4997449;28;20446;-68
2023/11/21 10:40:54;;;;;;;11.83;11.43;;;22.40;67.20;;;;;;5012271;28;20485;-68
2023/11/21 10:43:25;;;;;;;12.60;12.20;;;22.40;67.10;;;;;;5012084;28;20462;-67
2023/11/21 10:45:52;;;;;;;11.70;11.40;;;22.40;67.10;;;;;;5012045;28;20914;-68
2023/11/21 10:48:19;;;;;;;11.97;11.57;;;22.40;67.20;;;;;;5012055;28;20890;-68
2023/11/21 10:50:47;;;;;;;12.20;11.80;;;22.40;67.10;;;;;;5012100;28;20457;-68
2023/11/21 10:53:14;;;;;;;11.87;11.33;;;22.40;67.00;;;;;;5011792;28;20508;-68
2023/11/21 10:55:41;;;;;;;12.70;12.20;;;22.40;67.10;;;;;;5011958;28;20470;-68
2023/11/21 10:58:11;;;;;;;11.87;11.47;;;22.40;67.10;;;;;;5011938;28;20482;-67
2023/11/21 11:00:40;;;;;;;12.63;12.23;;;22.40;67.10;;;;;;5004392;28;20972;-67
2023/11/21 11:03:13;;;;;;;11.70;11.30;;;22.40;67.00;;;;;;5011756;28;20462;-67
2023/11/21 11:05:45;;;;;;;12.20;11.80;;;22.40;67.00;;;;;;5004666;28;20682;-68
2023/11/21 11:08:18;;;;;;;12.03;11.60;;;22.40;67.00;;;;;;5011784;28;20449;-67
2023/11/21 11:10:46;;;;;;;11.60;11.20;;;22.40;67.00;;;;;;5011718;28;20477;-67
2023/11/21 11:13:15;;;;;;;11.77;11.27;;;22.40;67.00;;;;;;5011356;28;20524;-68
2023/11/21 11:15:43;;;;;;;10.77;10.27;;;22.40;66.90;;;;;;5011806;28;21105;-67
2023/11/21 11:18:11;;;;;;;12.90;12.20;;;22.40;66.90;;;;;;5011662;28;20458;-68
2023/11/21 11:20:40;;;;;;;11.47;11.07;;;22.40;66.90;;;;;;5011691;28;20965;-68
2023/11/21 11:23:24;;;;;;;11.37;10.93;;;22.40;67.60;;;;;;5011498;28;20497;-67
2023/11/21 11:26:06;;;;;;;12.07;11.57;;;22.40;66.90;;;;;;5005665;28;20506;-68
2023/11/21 11:28:45;;;;;;;12.30;11.90;;;22.40;66.80;;;;;;5011577;28;20473;-67
2023/11/21 11:31:24;;;;;;;12.90;12.40;;;22.40;66.80;;;;;;5011476;28;20481;-68
2023/11/21 11:33:58;;;;;;;12.43;11.93;;;22.40;66.80;;;;;;5011604;28;20450;-68
2023/11/21 11:36:32;;;;;;;13.60;13.00;;;22.40;66.80;;;;;;5013633;28;20437;-68
2023/11/21 11:39:01;;;;;;;12.03;11.60;;;22.40;66.80;;;;;;5015724;28;20446;-68
2023/11/21 11:41:32;;;;;;;12.20;11.73;;;22.40;66.80;;;;;;5015301;28;21002;-68
2023/11/21 11:44:01;;;;;;;11.70;11.30;;;22.40;66.80;;;;;;5015480;28;20454;-68
2023/11/21 11:46:42;;;;;;;11.10;10.60;;;22.40;66.70;;;;;;5015311;28;20505;-68
2023/11/21 11:49:09;;;;;;;11.20;10.60;;;22.40;66.80;;;;;;5015457;28;20446;-68
2023/11/21 11:51:36;;;;;;;11.40;11.10;;;22.40;66.80;;;;;;5040819;22;20457;-63
2023/11/21 11:54:06;;;;;;;11.00;10.70;;;22.40;66.70;;;;;;5035071;28;20457;-64
2023/11/21 11:56:35;;;;;;;11.60;11.20;;;22.40;66.70;;;;;;5034907;28;20437;-63
2023/11/21 11:59:06;;;;;;;11.70;11.20;;;22.40;66.70;;;;;;5034905;28;20468;-64
2023/11/21 12:01:34;;;;;;;12.07;11.57;;;22.40;66.70;;;;;;5034888;28;20429;-63
2023/11/21 12:04:35;;;;;;;13.03;12.53;;;22.40;66.70;;;;;;5026838;28;20500;-63
2023/11/21 12:07:05;;;;;;;12.50;12.00;;;22.40;66.70;;;;;;5018808;28;20480;-63
2023/11/21 12:09:33;;;;;;;12.10;11.60;;;22.40;66.60;;;;;;5026208;28;20811;-64
2023/11/21 12:12:01;;;;;;;12.13;11.73;;;22.40;66.70;;;;;;5026476;28;21046;-64
2023/11/21 12:14:29;;;;;;;12.27;11.77;;;22.40;66.70;;;;;;5024202;28;20860;-64
2023/11/21 12:16:56;;;;;;;11.47;11.07;;;22.40;66.60;;;;;;5023115;28;20444;-63
2023/11/21 12:19:23;;;;;;;12.17;11.77;;;22.40;66.60;;;;;;5024442;28;20470;-62
2023/11/21 12:21:52;;;;;;;12.53;12.10;;;22.40;66.60;;;;;;5026324;28;20882;-64
2023/11/21 12:24:19;;;;;;;11.10;10.60;;;22.40;66.50;;;;;;5025377;28;20939;-64
2023/11/21 12:26:45;;;;;;;11.33;10.73;;;22.40;66.50;;;;;;5022876;28;20734;-64
2023/11/21 12:29:12;;;;;;;12.17;11.70;;;22.40;66.50;;;;;;5022767;28;20485;-64
2023/11/21 12:31:41;;;;;;;11.57;11.10;;;22.40;66.40;;;;;;5026118;28;20479;-64
2023/11/21 12:34:11;;;;;;;12.23;11.83;;;22.40;66.40;;;;;;5026170;28;20582;-64
2023/11/21 12:36:38;;;;;;;11.80;11.20;;;22.40;66.40;;;;;;5014652;28;20438;-64
2023/11/21 12:39:05;;;;;;;13.00;12.60;;;22.40;66.40;;;;;;5022677;28;20880;-64
2023/11/21 12:41:32;;;;;;;12.13;11.73;;;22.40;66.40;;;;;;5025129;28;20876;-64